createdAt,value
2024-04-19T00:02:24.849Z,34.30
2024-04-19T00:07:26.479Z,34.30
2024-04-19T00:12:30.412Z,34.20
2024-04-19T00:17:32.153Z,34.20
2024-04-19T00:22:33.813Z,34.20
2024-04-19T00:27:35.434Z,34.20
2024-04-19T00:32:37.145Z,34.20
2024-04-19T00:37:38.778Z,34.20
2024-04-19T00:42:40.429Z,34.30
2024-04-19T00:47:42.137Z,34.20
2024-04-19T00:52:43.770Z,34.20
2024-04-19T00:57:45.387Z,34.10
2024-04-19T01:02:47.018Z,34.10
2024-04-19T01:07:48.635Z,34.20
2024-04-19T01:12:50.228Z,34.10
2024-04-19T01:17:51.913Z,34.10
2024-04-19T01:22:53.514Z,34.10
2024-04-19T01:27:55.077Z,34.10
2024-04-19T01:32:56.700Z,34.10
2024-04-19T01:37:58.288Z,34.30
2024-04-19T01:42:59.840Z,34.10
2024-04-19T01:48:01.672Z,33.90
2024-04-19T01:53:03.455Z,33.90
2024-04-19T01:58:04.996Z,33.90
2024-04-19T02:03:06.539Z,34.00
2024-04-19T02:08:08.081Z,34.00
2024-04-19T02:13:09.617Z,34.10
2024-04-19T02:18:11.267Z,34.10
2024-04-19T02:23:12.907Z,34.20
2024-04-19T02:28:14.438Z,34.20
2024-04-19T02:33:16.046Z,34.20
2024-04-19T02:38:17.694Z,34.20
2024-04-19T02:43:19.242Z,34.30
2024-04-19T02:48:20.801Z,34.30
2024-04-19T02:53:22.395Z,34.40
2024-04-19T02:58:23.938Z,34.40
2024-04-19T03:03:25.641Z,34.40
2024-04-19T03:08:27.292Z,34.40
2024-04-19T03:13:28.864Z,34.50
2024-04-19T03:18:30.413Z,34.50
2024-04-19T03:23:31.957Z,34.50
2024-04-19T03:28:33.494Z,34.50
2024-04-19T03:33:35.171Z,34.50
2024-04-19T03:38:36.906Z,34.60
2024-04-19T03:43:38.429Z,34.60
2024-04-19T03:48:39.957Z,35.20
2024-04-19T03:53:41.513Z,34.60
2024-04-19T03:58:43.058Z,34.60
2024-04-19T04:03:44.617Z,34.60
2024-04-19T04:08:46.166Z,34.70
2024-04-19T04:13:47.710Z,34.70
2024-04-19T04:18:49.567Z,34.70
2024-04-19T04:23:51.127Z,34.80
2024-04-19T04:28:52.687Z,34.80
2024-04-19T04:33:54.322Z,34.80
2024-04-19T04:38:55.922Z,34.80
2024-04-19T04:43:57.494Z,34.80
2024-04-19T04:48:59.113Z,34.80
2024-04-19T04:54:00.729Z,34.80
2024-04-19T04:59:02.301Z,34.80
2024-04-19T05:04:03.983Z,34.80
2024-04-19T05:09:05.569Z,34.80
2024-04-19T05:14:07.117Z,34.80
2024-04-19T05:19:08.720Z,34.80
2024-04-19T05:24:10.286Z,34.80
2024-04-19T05:29:11.811Z,34.90
2024-04-19T05:34:13.354Z,34.90
2024-04-19T05:39:14.918Z,34.90
2024-04-19T05:44:16.480Z,34.90
2024-04-19T05:49:18.092Z,34.90
2024-04-19T05:54:19.723Z,34.90
2024-04-19T05:59:21.296Z,34.90
2024-04-19T06:04:22.877Z,34.90
2024-04-19T06:09:24.461Z,35.00
2024-04-19T06:14:26.006Z,34.90
2024-04-19T06:19:27.613Z,35.00
2024-04-19T06:24:29.269Z,35.00
2024-04-19T06:29:30.889Z,35.00
2024-04-19T06:34:32.462Z,35.00
2024-04-19T06:39:34.134Z,35.00
2024-04-19T06:44:35.758Z,35.00
2024-04-19T06:49:37.375Z,35.10
2024-04-19T06:54:38.943Z,35.10
2024-04-19T06:59:40.537Z,35.10
2024-04-19T07:04:42.268Z,35.10
2024-04-19T07:09:44.009Z,35.10
2024-04-19T07:14:45.586Z,35.20
2024-04-19T07:19:47.131Z,35.20
2024-04-19T07:24:48.809Z,35.20
2024-04-19T07:29:50.426Z,35.20
2024-04-19T07:34:52.077Z,35.20
2024-04-19T07:39:53.677Z,35.20
2024-04-19T07:44:55.287Z,35.30
2024-04-19T07:49:56.832Z,35.20
2024-04-19T07:54:58.493Z,35.30
2024-04-19T08:00:00.048Z,35.30
2024-04-19T08:05:01.594Z,35.30
2024-04-19T08:10:03.185Z,35.30
2024-04-19T08:15:04.757Z,35.30
2024-04-19T08:20:06.392Z,35.30
2024-04-19T08:25:07.989Z,35.30
2024-04-19T08:30:09.577Z,35.40
2024-04-19T08:35:11.159Z,35.40
2024-04-19T08:40:12.832Z,35.50
2024-04-19T08:45:14.513Z,35.50
2024-04-19T08:50:18.839Z,35.50
2024-04-19T08:55:21.039Z,35.50
2024-04-19T09:00:23.191Z,35.50
2024-04-19T09:05:24.958Z,35.60
2024-04-19T09:10:26.524Z,35.60
2024-04-19T09:15:28.148Z,35.60
2024-04-19T09:20:29.714Z,35.60
2024-04-19T09:25:31.258Z,35.60
2024-04-19T09:30:32.808Z,35.60
2024-04-19T09:35:34.371Z,35.60
2024-04-19T09:40:35.920Z,35.60
2024-04-19T09:45:37.551Z,35.70
2024-04-19T09:50:39.161Z,35.60
2024-04-19T09:55:40.762Z,35.60
2024-04-19T10:00:42.436Z,35.60
2024-04-19T10:05:44.020Z,35.60
2024-04-19T10:10:45.558Z,35.60
2024-04-19T10:15:47.331Z,35.70
2024-04-19T10:20:48.881Z,35.70
2024-04-19T10:25:50.416Z,35.70
2024-04-19T10:30:51.948Z,35.70
2024-04-19T10:35:53.471Z,35.70
2024-04-19T10:40:55.043Z,35.70
2024-04-19T10:45:56.705Z,35.70
2024-04-19T10:50:58.283Z,35.70
2024-04-19T10:55:59.854Z,35.70
2024-04-19T11:01:02.118Z,35.70
2024-04-19T11:06:03.759Z,35.80
2024-04-19T11:11:05.355Z,35.80
2024-04-19T11:16:06.951Z,35.80
2024-04-19T11:21:12.055Z,35.80
2024-04-19T11:26:15.224Z,35.80
2024-04-19T11:31:16.783Z,35.80
2024-04-19T11:36:18.348Z,35.80
2024-04-19T11:41:19.930Z,35.80
2024-04-19T11:46:21.492Z,35.80
2024-04-19T11:51:23.070Z,35.80
2024-04-19T11:56:24.623Z,35.80
2024-04-19T12:01:26.204Z,35.80
2024-04-19T12:06:27.870Z,35.80
2024-04-19T12:11:29.504Z,35.80
2024-04-19T12:16:40.268Z,35.80
2024-04-19T12:21:48.031Z,35.80
2024-04-19T12:26:51.004Z,35.80
2024-04-19T12:31:52.628Z,35.90
2024-04-19T12:36:54.233Z,36.00
2024-04-19T12:41:55.807Z,36.00
2024-04-19T12:46:57.386Z,36.00
2024-04-19T12:51:58.983Z,36.00
2024-04-19T12:57:00.792Z,36.00
2024-04-19T13:02:02.492Z,36.10
2024-04-19T13:07:04.081Z,36.10
2024-04-19T13:12:05.654Z,36.10
2024-04-19T13:17:07.256Z,36.00
2024-04-19T13:22:08.888Z,36.00
2024-04-19T13:27:10.458Z,36.10
2024-04-19T13:32:12.001Z,36.10
2024-04-19T13:37:15.952Z,36.00
2024-04-19T13:42:19.405Z,36.00
2024-04-19T13:47:21.035Z,36.10
2024-04-19T13:52:22.660Z,36.00
2024-04-19T13:57:24.258Z,36.10
2024-04-19T14:02:25.953Z,36.00
2024-04-19T14:07:27.593Z,36.10
2024-04-19T14:12:29.177Z,36.10
2024-04-19T14:17:30.759Z,36.10
2024-04-19T14:22:32.312Z,36.10
2024-04-19T14:27:33.957Z,36.20
2024-04-19T14:32:35.692Z,36.20
2024-04-19T14:37:37.369Z,36.20
2024-04-19T14:42:38.924Z,36.20
2024-04-19T14:47:40.534Z,36.20
2024-04-19T14:52:50.513Z,36.20
2024-04-19T14:57:57.842Z,36.20
2024-04-19T15:02:59.425Z,36.50
2024-04-19T15:08:00.955Z,36.80
2024-04-19T15:13:02.565Z,36.60
2024-04-19T15:18:04.218Z,36.60
2024-04-19T15:23:05.806Z,36.90
2024-04-19T15:28:07.441Z,37.00
2024-04-19T15:33:09.149Z,37.30
2024-04-19T15:38:10.787Z,37.10
2024-04-19T15:43:12.324Z,36.60
2024-04-19T15:48:16.639Z,36.60
2024-04-19T15:53:18.810Z,36.70
2024-04-19T15:58:20.349Z,36.70
2024-04-19T16:03:21.919Z,36.70
2024-04-19T16:08:24.411Z,36.60
2024-04-19T16:13:25.955Z,36.80
2024-04-19T16:18:27.507Z,36.60
2024-04-19T16:23:29.039Z,36.60
2024-04-19T16:28:30.632Z,36.50
2024-04-19T16:33:32.376Z,36.20
2024-04-19T16:38:34.500Z,36.60
2024-04-19T16:43:36.115Z,36.20
2024-04-19T16:48:37.665Z,36.00
2024-04-19T16:53:39.216Z,35.70
2024-04-19T16:58:40.783Z,35.70
2024-04-19T17:03:42.414Z,35.70
2024-04-19T17:08:44.024Z,35.70
2024-04-19T17:13:45.547Z,35.70
2024-04-19T17:18:47.116Z,35.80
2024-04-19T17:23:48.685Z,35.80
2024-04-19T17:28:50.223Z,35.90
2024-04-19T17:33:51.935Z,36.20
2024-04-19T17:38:53.516Z,36.50
2024-04-19T17:43:55.058Z,36.50
2024-04-19T17:48:56.659Z,36.70
2024-04-19T17:53:58.240Z,36.90
2024-04-19T17:58:59.771Z,37.00
2024-04-19T18:04:01.507Z,37.00
2024-04-19T18:09:03.093Z,37.10
2024-04-19T18:14:04.677Z,37.20
2024-04-19T18:19:06.395Z,37.20
2024-04-19T18:24:10.395Z,37.20
2024-04-19T18:29:12.339Z,37.60
2024-04-19T18:34:13.886Z,37.80
2024-04-19T18:39:15.432Z,37.80
2024-04-19T18:44:16.987Z,38.20
2024-04-19T18:49:18.583Z,38.30
2024-04-19T18:54:20.140Z,37.90
2024-04-19T18:59:21.682Z,38.20
2024-04-19T19:04:23.278Z,35.30
2024-04-19T19:09:25.200Z,34.00
2024-04-19T19:14:26.775Z,33.60
2024-04-19T19:19:28.337Z,33.30
2024-04-19T19:24:29.939Z,32.60
2024-04-19T19:29:31.497Z,33.70
2024-04-19T19:34:33.028Z,33.10
2024-04-19T19:39:34.673Z,32.60
2024-04-19T19:44:36.272Z,32.30
2024-04-19T19:49:37.831Z,32.40
2024-04-19T19:54:39.396Z,33.10
2024-04-19T19:59:40.982Z,33.60
2024-04-19T20:04:42.574Z,34.00
2024-04-19T20:09:44.193Z,34.20
2024-04-19T20:14:45.747Z,34.50
2024-04-19T20:19:47.315Z,36.00
2024-04-19T20:24:48.876Z,35.90
2024-04-19T20:29:50.447Z,36.40
2024-04-19T20:34:51.990Z,36.50
2024-04-19T20:39:53.624Z,36.90
2024-04-19T20:44:55.273Z,36.90
2024-04-19T20:49:56.800Z,37.00
2024-04-19T20:54:58.420Z,37.00
2024-04-19T21:00:00.016Z,37.10
2024-04-19T21:05:01.592Z,37.20
2024-04-19T21:10:03.254Z,36.90
2024-04-19T21:15:04.866Z,37.20
2024-04-19T21:20:06.422Z,36.40
2024-04-19T21:25:08.105Z,35.90
2024-04-19T21:30:09.763Z,36.10
2024-04-19T21:35:11.295Z,35.80
2024-04-19T21:40:12.887Z,35.80
2024-04-19T21:45:14.462Z,35.20
2024-04-19T21:50:16.011Z,35.70
2024-04-19T21:55:17.560Z,35.60
2024-04-19T22:00:19.111Z,35.70
2024-04-19T22:05:20.651Z,35.80
2024-04-19T22:10:22.203Z,35.80
2024-04-19T22:15:23.752Z,35.90
2024-04-19T22:20:25.326Z,35.90
2024-04-19T22:25:26.922Z,35.90
2024-04-19T22:30:28.549Z,35.90
2024-04-19T22:35:30.175Z,36.00
2024-04-19T22:40:31.723Z,36.00
2024-04-19T22:45:33.302Z,36.00
2024-04-19T22:50:34.850Z,36.10
2024-04-19T22:55:36.394Z,36.10
2024-04-19T23:00:38.048Z,36.10
2024-04-19T23:05:39.619Z,36.10
2024-04-19T23:10:41.163Z,36.10
2024-04-19T23:15:42.715Z,36.20
2024-04-19T23:20:44.244Z,36.50
2024-04-19T23:25:45.777Z,36.40
2024-04-19T23:30:47.323Z,36.50
2024-04-19T23:35:48.884Z,36.40
2024-04-19T23:40:50.438Z,36.40
2024-04-19T23:45:52.040Z,36.80
2024-04-19T23:50:53.635Z,37.00
2024-04-19T23:55:55.186Z,37.20
